Time;durP1;ratioP1;P1;durP2;ratioP2;P2;SDS_P1;SDS_P2;PMS_P1;PMS_P2;Temp;Humidity;BMP_temperature;BMP_pressure;BME280_temperature;BME280_humidity;BME280_pressure;Samples;Min_cycle;Max_cycle;Signal;HPM_P1;HPM_P2
2022/09/21 00:00:44;;;;;;;19.08;9.77;;;;;;;10.13;100.00;102556.84;5006796;28;20397;-68
2022/09/21 00:03:10;;;;;;;19.42;9.63;;;;;;;10.14;100.00;102562.16;5008575;28;20049;-68
2022/09/21 00:05:35;;;;;;;16.40;9.68;;;;;;;10.14;100.00;102567.66;5007715;28;20041;-68
2022/09/21 00:08:05;;;;;;;17.33;8.88;;;;;;;10.12;100.00;102564.22;5007536;28;20045;-68
2022/09/21 00:10:31;;;;;;;15.73;8.85;;;;;;;10.09;100.00;102570.09;5006201;28;20108;-68
2022/09/21 00:12:57;;;;;;;15.60;8.18;;;;;;;10.03;100.00;102562.59;5007544;28;20017;-68
2022/09/21 00:15:23;;;;;;;16.85;9.02;;;;;;;9.99;100.00;102565.91;5007993;28;20044;-68
2022/09/21 00:17:52;;;;;;;16.40;8.73;;;;;;;9.96;100.00;102560.78;5008253;28;20066;-68
2022/09/21 00:20:18;;;;;;;17.25;10.15;;;;;;;9.95;100.00;102556.34;5007973;28;20034;-68
2022/09/21 00:22:45;;;;;;;17.83;9.63;;;;;;;9.92;100.00;102560.28;5006716;28;20049;-68
2022/09/21 00:25:10;;;;;;;21.75;11.50;;;;;;;9.87;100.00;102557.25;5008035;28;20033;-68
2022/09/21 00:27:36;;;;;;;19.85;10.55;;;;;;;9.83;100.00;102559.53;5007504;28;20018;-68
2022/09/21 00:30:02;;;;;;;19.33;10.32;;;;;;;9.80;100.00;102550.78;5006397;28;20206;-67
2022/09/21 00:32:30;;;;;;;17.75;9.45;;;;;;;9.72;100.00;102556.34;5007215;28;20428;-68
2022/09/21 00:34:59;;;;;;;23.27;11.43;;;;;;;9.63;100.00;102555.56;5008431;28;20036;-67
2022/09/21 00:37:25;;;;;;;18.88;10.27;;;;;;;9.60;100.00;102551.28;5009986;28;20476;-67
2022/09/21 00:39:51;;;;;;;18.08;11.20;;;;;;;9.60;100.00;102553.19;5010164;28;20040;-68
2022/09/21 00:42:23;;;;;;;20.20;11.18;;;;;;;9.58;100.00;102556.09;5007115;28;20034;-67
2022/09/21 00:44:48;;;;;;;16.67;10.00;;;;;;;9.56;100.00;102557.31;5011252;28;20034;-68
2022/09/21 00:47:18;;;;;;;18.88;9.68;;;;;;;9.48;100.00;102555.50;5011626;28;20037;-67
2022/09/21 00:49:48;;;;;;;15.85;9.50;;;;;;;9.45;100.00;102558.59;5012402;28;20026;-67
2022/09/21 00:52:15;;;;;;;17.02;9.35;;;;;;;9.51;100.00;102559.75;5010743;28;20116;-67
2022/09/21 00:54:58;;;;;;;17.58;9.93;;;;;;;9.52;100.00;102554.06;5011463;28;20033;-67
2022/09/21 00:57:27;;;;;;;17.02;10.07;;;;;;;9.49;100.00;102559.94;5010785;28;20116;-68
2022/09/21 00:59:56;;;;;;;22.08;10.43;;;;;;;9.48;100.00;102560.09;5009956;28;20473;-68
2022/09/21 01:02:22;;;;;;;21.48;10.80;;;;;;;9.47;100.00;102553.75;5009425;28;20034;-67
2022/09/21 01:04:48;;;;;;;18.20;10.93;;;;;;;9.45;100.00;102561.34;5011365;28;20048;-67
2022/09/21 01:07:18;;;;;;;20.25;10.80;;;;;;;9.44;100.00;102564.25;5011275;28;20049;-67
2022/09/21 01:09:51;;;;;;;21.70;10.52;;;;;;;9.44;100.00;102561.53;5011205;28;20489;-67
2022/09/21 01:12:38;;;;;;;17.40;9.90;;;;;;;9.48;100.00;102558.25;5063430;22;20139;-64
2022/09/21 01:15:12;;;;;;;18.53;9.97;;;;;;;9.47;100.00;102569.38;5022996;28;20037;-65
2022/09/21 01:17:53;;;;;;;20.90;10.13;;;;;;;9.45;100.00;102565.97;5030741;28;20637;-65
2022/09/21 01:20:28;;;;;;;20.00;10.48;;;;;;;9.47;100.00;102569.38;5031231;28;20476;-65
2022/09/21 01:23:32;;;;;;;20.92;10.30;;;;;;;9.49;100.00;102576.41;5030621;28;20033;-65
2022/09/21 01:25:57;;;;;;;21.58;11.63;;;;;;;9.52;100.00;102566.94;5027955;28;20021;-65
2022/09/21 01:28:29;;;;;;;20.38;10.77;;;;;;;9.48;100.00;102573.81;5028984;28;20375;-65
2022/09/21 01:30:59;;;;;;;20.38;11.27;;;;;;;9.46;100.00;102567.66;5030132;28;20388;-65
2022/09/21 01:33:40;;;;;;;19.98;10.77;;;;;;;9.44;100.00;102567.00;5030376;28;20045;-65
2022/09/21 01:36:12;;;;;;;19.42;10.75;;;;;;;9.43;100.00;102565.28;5029253;28;20052;-65
2022/09/21 01:38:44;;;;;;;19.15;11.20;;;;;;;9.36;100.00;102568.75;5027372;28;20022;-65
2022/09/21 01:41:13;;;;;;;17.48;9.88;;;;;;;9.30;100.00;102566.72;5028842;28;20467;-65
2022/09/21 01:43:48;;;;;;;17.02;9.77;;;;;;;9.24;100.00;102564.72;5028126;28;20116;-65
2022/09/21 01:46:19;;;;;;;18.33;9.52;;;;;;;9.19;100.00;102561.66;5028215;28;20029;-66
2022/09/21 01:48:51;;;;;;;16.73;9.50;;;;;;;9.18;100.00;102561.84;5030934;28;20041;-65
2022/09/21 01:51:20;;;;;;;15.02;9.00;;;;;;;9.19;100.00;102566.28;5030294;28;20075;-65
2022/09/21 01:53:55;;;;;;;17.95;9.75;;;;;;;9.17;100.00;102571.94;5030881;28;20029;-64
2022/09/21 01:56:26;;;;;;;19.27;10.65;;;;;;;9.16;100.00;102572.13;5029151;28;20033;-65
2022/09/21 01:59:08;;;;;;;18.02;10.10;;;;;;;9.16;100.00;102570.22;5028710;28;20036;-65
2022/09/21 02:01:40;;;;;;;17.48;10.13;;;;;;;9.10;100.00;102565.47;5029400;28;20083;-65
2022/09/21 02:04:10;;;;;;;17.50;10.45;;;;;;;9.12;100.00;102568.03;5027759;28;20030;-65
2022/09/21 02:06:38;;;;;;;18.05;10.15;;;;;;;9.11;100.00;102561.69;5028641;28;20597;-65
2022/09/21 02:09:04;;;;;;;18.50;10.68;;;;;;;9.10;100.00;102568.22;5029501;28;20108;-65
2022/09/21 02:11:29;;;;;;;19.02;11.00;;;;;;;9.13;100.00;102567.88;5028641;28;20697;-65
2022/09/21 02:13:55;;;;;;;20.00;11.00;;;;;;;9.12;100.00;102566.13;5028828;28;20034;-65
2022/09/21 02:16:23;;;;;;;18.80;10.20;;;;;;;9.09;100.00;102572.00;5030115;28;20025;-65
2022/09/21 02:19:01;;;;;;;16.08;10.18;;;;;;;9.06;100.00;102566.84;5029712;28;20040;-65
2022/09/21 02:21:36;;;;;;;18.85;9.88;;;;;;;9.04;100.00;102558.81;5028037;28;20025;-64
2022/09/21 02:24:20;;;;;;;19.48;10.43;;;;;;;9.01;100.00;102563.78;5018306;28;20420;-64
2022/09/21 02:26:54;;;;;;;15.23;9.75;;;;;;;8.93;100.00;102564.69;5029640;28;20025;-65
2022/09/21 02:29:27;;;;;;;16.02;9.18;;;;;;;8.89;100.00;102560.59;5027787;28;20030;-65
2022/09/21 02:32:34;;;;;;;19.17;10.20;;;;;;;8.84;100.00;102573.97;5027941;28;20037;-65
2022/09/21 02:35:22;;;;;;;18.90;10.82;;;;;;;8.71;100.00;102563.56;4987224;28;20049;-64
2022/09/21 02:37:53;;;;;;;16.85;10.23;;;;;;;8.68;100.00;102561.19;4975298;28;20499;-65
2022/09/21 02:40:28;;;;;;;18.67;11.70;;;;;;;8.63;100.00;102560.03;5026331;28;20468;-65
2022/09/21 02:42:59;;;;;;;21.30;10.70;;;;;;;8.58;100.00;102563.28;5027186;28;20088;-65
2022/09/21 02:45:34;;;;;;;20.45;10.48;;;;;;;8.56;100.00;102566.19;5028547;28;20040;-65
2022/09/21 02:48:05;;;;;;;16.80;10.40;;;;;;;8.52;100.00;102566.72;5029055;28;20495;-65
2022/09/21 02:50:45;;;;;;;16.40;9.88;;;;;;;8.51;100.00;102567.72;5028818;28;20096;-65
2022/09/21 02:53:14;;;;;;;16.38;9.82;;;;;;;8.44;100.00;102562.13;5026620;28;20112;-65
2022/09/21 02:55:41;;;;;;;18.23;10.32;;;;;;;8.36;100.00;102562.13;5029752;28;20013;-65
2022/09/21 02:58:12;;;;;;;15.88;10.55;;;;;;;8.32;100.00;102553.38;5025646;28;20434;-65
2022/09/21 03:00:38;;;;;;;17.92;11.00;;;;;;;8.31;100.00;102554.44;5028446;28;20472;-65
2022/09/21 03:03:22;;;;;;;19.25;9.65;;;;;;;8.30;100.00;102555.44;5027064;28;20067;-65
2022/09/21 03:05:49;;;;;;;18.75;10.38;;;;;;;8.25;100.00;102560.56;5011087;28;20034;-65
2022/09/21 03:08:16;;;;;;;16.23;10.00;;;;;;;8.23;100.00;102565.38;5029135;28;20463;-65
2022/09/21 03:10:43;;;;;;;15.10;9.70;;;;;;;8.20;100.00;102571.19;5028947;28;20050;-65
2022/09/21 03:13:09;;;;;;;15.35;9.80;;;;;;;8.14;100.00;102566.41;5025830;28;20136;-64
2022/09/21 03:15:38;;;;;;;15.43;9.75;;;;;;;8.10;100.00;102575.97;5029269;28;20395;-65
2022/09/21 03:18:08;;;;;;;16.60;10.05;;;;;;;8.07;100.00;102570.88;5027816;28;20535;-65
2022/09/21 03:20:34;;;;;;;18.85;9.70;;;;;;;8.01;100.00;102566.94;5027982;28;20072;-65
2022/09/21 03:22:59;;;;;;;17.27;9.65;;;;;;;8.00;100.00;102576.16;5028385;28;20032;-65
2022/09/21 03:25:26;;;;;;;15.60;9.95;;;;;;;7.97;100.00;102572.94;5026804;28;20104;-65
2022/09/21 03:27:52;;;;;;;16.90;9.38;;;;;;;7.93;100.00;102574.28;5027881;28;20484;-65
2022/09/21 03:30:18;;;;;;;16.63;10.30;;;;;;;7.92;100.00;102569.84;5028737;28;20029;-65
2022/09/21 03:32:44;;;;;;;16.67;9.55;;;;;;;7.88;100.00;102572.06;5028085;28;20352;-64
2022/09/21 03:35:09;;;;;;;14.85;9.25;;;;;;;7.82;100.00;102583.69;5026698;28;20060;-64
2022/09/21 03:37:35;;;;;;;12.93;8.63;;;;;;;7.81;100.00;102576.53;5027187;28;20053;-65
2022/09/21 03:40:01;;;;;;;12.65;8.93;;;;;;;7.79;100.00;102584.03;5025829;28;20077;-65
2022/09/21 03:42:26;;;;;;;15.68;9.02;;;;;;;7.70;100.00;102577.69;5027806;28;20079;-65
2022/09/21 03:44:51;;;;;;;13.55;8.30;;;;;;;7.65;100.00;102581.94;5025669;28;20034;-65
2022/09/21 03:47:17;;;;;;;16.13;8.70;;;;;;;7.62;100.00;102582.31;5028467;28;20040;-64
2022/09/21 03:49:42;;;;;;;16.13;8.93;;;;;;;7.63;100.00;102584.00;5027899;28;20251;-65
2022/09/21 03:52:07;;;;;;;14.45;8.60;;;;;;;7.61;100.00;102588.81;5027271;28;20665;-65
2022/09/21 03:54:32;;;;;;;13.80;8.90;;;;;;;7.59;100.00;102588.09;5026190;28;20021;-64
2022/09/21 03:56:58;;;;;;;14.65;9.13;;;;;;;7.57;100.00;102585.53;5027839;28;20029;-65
2022/09/21 03:59:23;;;;;;;13.25;9.48;;;;;;;7.54;100.00;102588.59;5026004;28;20034;-66
2022/09/21 04:01:48;;;;;;;13.38;8.90;;;;;;;7.51;100.00;102589.81;5027046;28;20029;-67
2022/09/21 04:04:15;;;;;;;13.02;8.05;;;;;;;7.48;100.00;102587.41;5025605;28;20660;-66
2022/09/21 04:06:40;;;;;;;12.35;8.07;;;;;;;7.48;100.00;102584.66;5027798;28;20026;-67
2022/09/21 04:09:06;;;;;;;11.18;7.18;;;;;;;7.43;100.00;102589.78;5026035;28;20045;-66
2022/09/21 04:11:32;;;;;;;12.90;8.02;;;;;;;7.35;100.00;102586.16;5025864;28;20029;-67
2022/09/21 04:13:59;;;;;;;12.43;7.53;;;;;;;7.27;100.00;102587.84;5025585;28;20057;-67
2022/09/21 04:16:26;;;;;;;11.65;8.10;;;;;;;7.27;100.00;102587.84;5027246;28;20045;-66
2022/09/21 04:18:51;;;;;;;14.38;8.85;;;;;;;7.22;100.00;102576.56;5027849;28;20057;-67
2022/09/21 04:21:17;;;;;;;15.05;9.13;;;;;;;7.22;100.00;102576.56;5026926;28;20072;-67
2022/09/21 04:23:43;;;;;;;13.63;8.65;;;;;;;7.19;100.00;102574.16;5025399;28;20037;-67
2022/09/21 04:26:29;;;;;;;15.15;10.57;;;;;;;7.20;100.00;102588.72;5024071;28;20021;-67
2022/09/21 04:28:54;;;;;;;14.02;9.75;;;;;;;7.18;100.00;102586.13;5026979;28;20034;-67
2022/09/21 04:31:21;;;;;;;17.25;10.25;;;;;;;7.20;100.00;102581.34;5027896;28;20032;-67
2022/09/21 04:33:49;;;;;;;13.75;9.55;;;;;;;7.18;100.00;102586.13;5027250;28;20384;-67
2022/09/21 04:36:15;;;;;;;16.38;10.00;;;;;;;7.16;100.00;102582.72;5028520;28;20021;-66
2022/09/21 04:38:40;;;;;;;17.17;11.07;;;;;;;7.15;100.00;102583.72;5027270;28;20507;-67
2022/09/21 04:41:05;;;;;;;15.88;9.25;;;;;;;7.13;100.00;102588.50;5024363;28;20079;-67
2022/09/21 04:43:31;;;;;;;13.52;7.97;;;;;;;7.11;100.00;102586.97;5025062;28;20108;-67
2022/09/21 04:45:56;;;;;;;12.90;8.55;;;;;;;7.09;100.00;102589.84;5026955;28;20472;-67
2022/09/21 04:48:22;;;;;;;14.40;8.65;;;;;;;7.08;100.00;102590.88;5027578;28;20492;-67
2022/09/21 04:50:48;;;;;;;13.13;7.93;;;;;;;7.06;100.00;102590.19;5027237;28;20049;-66
2022/09/21 04:53:14;;;;;;;11.55;8.43;;;;;;;7.02;100.00;102603.31;5027188;28;20021;-66
2022/09/21 04:55:39;;;;;;;16.33;8.77;;;;;;;6.99;100.00;102591.84;5025997;28;20095;-66
2022/09/21 04:58:04;;;;;;;13.13;8.52;;;;;;;6.96;100.00;102600.38;5025257;28;20066;-66
2022/09/21 05:00:30;;;;;;;14.50;10.23;;;;;;;6.95;100.00;102599.53;5027462;28;20544;-66
2022/09/21 05:02:55;;;;;;;15.40;10.32;;;;;;;6.91;100.00;102592.69;5024576;28;20080;-67
2022/09/21 05:05:21;;;;;;;15.73;10.65;;;;;;;6.93;100.00;102595.25;5026311;28;20108;-66
2022/09/21 05:07:46;;;;;;;15.20;10.05;;;;;;;6.95;100.00;102604.16;5025766;28;20025;-66
2022/09/21 05:10:12;;;;;;;15.13;10.13;;;;;;;6.92;100.00;102601.72;5024933;28;21757;-66
2022/09/21 05:12:37;;;;;;;15.98;10.20;;;;;;;6.90;100.00;102599.16;5023652;28;20041;-67
2022/09/21 05:15:03;;;;;;;18.52;10.18;;;;;;;6.91;100.00;102609.06;5026601;28;20026;-66
2022/09/21 05:17:28;;;;;;;17.30;10.35;;;;;;;6.88;100.00;102603.91;5014128;28;20038;-66
2022/09/21 05:19:54;;;;;;;12.93;8.98;;;;;;;6.90;100.00;102611.97;5027301;28;20045;-67
2022/09/21 05:22:20;;;;;;;15.68;9.48;;;;;;;6.89;100.00;102608.34;5030213;28;20072;-67
2022/09/21 05:24:46;;;;;;;18.15;9.48;;;;;;;6.88;100.00;102612.13;5029400;28;20033;-66
2022/09/21 05:27:12;;;;;;;16.17;9.18;;;;;;;6.85;100.00;102608.88;5029328;28;20041;-66
2022/09/21 05:29:38;;;;;;;15.68;9.52;;;;;;;6.82;100.00;102612.78;5029458;28;20021;-66
2022/09/21 05:32:37;;;;;;;18.80;10.18;;;;;;;6.87;100.00;102613.13;5029771;28;20033;-66
2022/09/21 05:35:21;;;;;;;14.77;10.13;;;;;;;6.86;100.00;102614.16;5011542;28;20503;-67
2022/09/21 05:38:12;;;;;;;16.65;10.48;;;;;;;6.90;100.00;102621.03;5029825;28;20069;-66
2022/09/21 05:40:37;;;;;;;14.60;9.77;;;;;;;6.88;100.00;102623.03;5029057;28;20029;-66
2022/09/21 05:43:03;;;;;;;16.23;10.07;;;;;;;6.86;100.00;102629.69;5029255;28;20051;-66
2022/09/21 05:45:28;;;;;;;15.63;9.70;;;;;;;6.84;100.00;102631.72;5030328;28;20490;-67
2022/09/21 05:48:01;;;;;;;15.55;10.80;;;;;;;6.85;100.00;102628.00;5029546;28;20129;-66
2022/09/21 05:50:33;;;;;;;14.93;10.20;;;;;;;6.80;100.00;102633.09;5029945;28;20380;-67
2022/09/21 05:53:21;;;;;;;16.08;10.20;;;;;;;6.84;100.00;102632.56;5029858;28;20029;-67
2022/09/21 05:55:56;;;;;;;16.75;10.38;;;;;;;6.81;100.00;102634.78;5029681;28;20453;-66
2022/09/21 05:58:44;;;;;;;16.85;10.13;;;;;;;6.82;100.00;102633.78;5027744;28;20029;-67
2022/09/21 06:01:35;;;;;;;15.77;10.10;;;;;;;6.86;100.00;102636.00;5024688;28;20033;-67
2022/09/21 06:04:02;;;;;;;15.60;10.45;;;;;;;6.82;100.00;102634.63;5028680;28;20084;-67
2022/09/21 06:06:27;;;;;;;17.00;11.45;;;;;;;6.88;100.00;102636.69;5029060;28;20025;-67
2022/09/21 06:08:52;;;;;;;20.05;12.65;;;;;;;6.93;100.00;102638.94;5027655;28;20083;-67
2022/09/21 06:11:18;;;;;;;16.35;11.52;;;;;;;6.94;100.00;102641.50;5027908;28;20022;-67
2022/09/21 06:13:44;;;;;;;15.88;11.52;;;;;;;6.98;100.00;102644.78;5029606;28;20038;-66
2022/09/21 06:16:10;;;;;;;17.85;10.98;;;;;;;7.00;100.00;102640.03;5029503;28;20034;-67
2022/09/21 06:18:38;;;;;;;17.25;11.23;;;;;;;7.03;100.00;102647.88;5028199;28;20387;-67
2022/09/21 06:21:03;;;;;;;18.20;10.85;;;;;;;7.06;100.00;102649.44;5028515;28;20037;-67
2022/09/21 06:23:29;;;;;;;18.00;11.55;;;;;;;7.10;100.00;102645.38;5028216;28;20042;-66
2022/09/21 06:25:54;;;;;;;17.42;11.80;;;;;;;7.15;100.00;102646.59;5026318;28;20030;-65
2022/09/21 06:28:20;;;;;;;15.73;11.25;;;;;;;7.22;100.00;102647.63;5027909;28;20021;-66
2022/09/21 06:30:53;;;;;;;19.17;11.70;;;;;;;7.27;100.00;102648.00;5027241;28;20087;-66
2022/09/21 06:33:24;;;;;;;18.05;11.02;;;;;;;7.32;100.00;102644.75;5028021;28;20038;-67
2022/09/21 06:35:59;;;;;;;14.27;11.05;;;;;;;7.36;100.00;102651.63;5009701;28;20121;-66
2022/09/21 06:38:27;;;;;;;19.95;12.13;;;;;;;7.40;100.00;102650.28;5027265;28;20063;-66
2022/09/21 06:40:53;;;;;;;19.67;11.40;;;;;;;7.52;100.00;102648.06;5028917;28;20036;-66
2022/09/21 06:43:19;;;;;;;17.25;12.95;;;;;;;7.60;100.00;102655.44;5028539;28;20464;-66
2022/09/21 06:45:52;;;;;;;19.65;12.00;;;;;;;7.67;100.00;102651.03;5029824;28;20030;-66
2022/09/21 06:48:18;;;;;;;19.05;12.60;;;;;;;7.70;100.00;102647.94;5028936;28;20080;-66
2022/09/21 06:50:43;;;;;;;18.92;12.45;;;;;;;7.79;100.00;102650.53;5030191;28;20073;-66
2022/09/21 06:53:08;;;;;;;18.90;12.75;;;;;;;7.85;100.00;102649.00;5027531;28;20129;-66
2022/09/21 06:55:34;;;;;;;21.20;13.25;;;;;;;7.93;100.00;102653.63;5025992;28;20033;-65
2022/09/21 06:58:02;;;;;;;21.45;13.75;;;;;;;8.00;100.00;102649.19;5016807;28;20179;-66
2022/09/21 07:00:28;;;;;;;21.50;12.85;;;;;;;8.06;100.00;102649.38;5012280;28;20056;-66
2022/09/21 07:02:53;;;;;;;17.92;13.32;;;;;;;8.15;100.00;102650.22;5009214;28;20065;-67
2022/09/21 07:05:18;;;;;;;20.52;17.30;;;;;;;8.22;100.00;102648.53;4996414;28;20160;-67
2022/09/21 07:07:44;;;;;;;22.77;14.50;;;;;;;8.32;100.00;102645.63;5024236;28;20487;-67
2022/09/21 07:10:09;;;;;;;23.38;15.18;;;;;;;8.39;100.00;102651.28;5016605;28;20030;-67
2022/09/21 07:12:35;;;;;;;24.15;14.52;;;;;;;8.48;100.00;102650.25;5010469;28;20038;-67
2022/09/21 07:15:01;;;;;;;28.63;16.83;;;;;;;8.68;100.00;102661.69;5003211;28;20580;-67
2022/09/21 07:17:34;;;;;;;22.58;16.10;;;;;;;8.79;100.00;102651.22;5015015;28;20075;-67
2022/09/21 07:20:03;;;;;;;30.45;16.80;;;;;;;8.94;100.00;102651.34;5006803;28;20054;-66
2022/09/21 07:22:29;;;;;;;27.45;16.00;;;;;;;9.08;100.00;102647.88;5012238;28;20468;-66
2022/09/21 07:24:55;;;;;;;29.42;15.48;;;;;;;9.20;100.00;102653.84;5009367;28;20048;-66
2022/09/21 07:27:20;;;;;;;23.92;13.43;;;;;;;9.33;100.00;102651.38;5009786;28;20464;-67
2022/09/21 07:29:45;;;;;;;24.00;12.98;;;;;;;9.44;100.00;102650.13;5007420;28;20439;-66
2022/09/21 07:32:12;;;;;;;28.45;12.80;;;;;;;9.52;100.00;102644.59;5007748;28;20480;-66
2022/09/21 07:34:37;;;;;;;23.55;13.13;;;;;;;9.63;100.00;102646.09;5010927;28;20040;-66
2022/09/21 07:37:02;;;;;;;22.75;11.55;;;;;;;9.74;100.00;102642.94;5010136;28;20037;-66
2022/09/21 07:39:28;;;;;;;23.40;12.05;;;;;;;9.83;100.00;102646.47;5016108;28;20060;-66
2022/09/21 07:41:53;;;;;;;30.48;13.70;;;;;;;9.93;100.00;102638.00;5015575;28;20323;-67
2022/09/21 07:44:21;;;;;;;23.25;12.05;;;;;;;10.01;100.00;102637.94;5011530;28;20068;-67
2022/09/21 07:46:47;;;;;;;20.58;11.85;;;;;;;10.10;100.00;102643.19;5012464;28;20445;-66
2022/09/21 07:49:13;;;;;;;22.00;12.02;;;;;;;10.20;100.00;102642.94;5009515;28;20091;-66
2022/09/21 07:51:38;;;;;;;22.88;11.77;;;;;;;10.29;100.00;102644.63;5009712;28;20049;-66
2022/09/21 07:54:04;;;;;;;22.58;11.52;;;;;;;10.40;100.00;102640.56;5005914;28;20409;-66
2022/09/21 07:56:29;;;;;;;31.63;16.35;;;;;;;10.49;100.00;102641.31;5005472;28;20026;-66
2022/09/21 07:59:07;;;;;;;31.05;18.38;;;;;;;10.58;100.00;102638.31;5010883;28;20018;-67
2022/09/21 08:01:40;;;;;;;31.05;18.98;;;;;;;10.68;100.00;102631.69;5010887;28;20083;-66
2022/09/21 08:04:08;;;;;;;25.13;12.63;;;;;;;10.77;98.99;102634.19;5002956;28;20151;-67
2022/09/21 08:06:38;;;;;;;23.38;12.68;;;;;;;10.86;99.52;102632.19;5008638;28;20049;-66
2022/09/21 08:09:04;;;;;;;25.55;12.82;;;;;;;10.97;99.39;102633.63;5004402;28;20432;-66
2022/09/21 08:11:32;;;;;;;20.42;11.63;;;;;;;11.09;98.57;102637.59;5000640;28;20033;-66
2022/09/21 08:14:01;;;;;;;19.43;12.43;;;;;;;11.17;97.84;102637.50;5006414;28;25352;-66
2022/09/21 08:16:27;;;;;;;17.75;10.38;;;;;;;11.28;96.12;102630.66;5008943;28;20103;-66
2022/09/21 08:18:53;;;;;;;21.13;9.75;;;;;;;11.39;95.86;102631.00;5015478;28;20406;-67
2022/09/21 08:21:19;;;;;;;17.63;9.32;;;;;;;11.49;94.96;102638.97;5012470;28;20033;-67
2022/09/21 08:23:45;;;;;;;21.23;9.15;;;;;;;11.58;93.44;102637.81;5014127;28;20124;-66
2022/09/21 08:26:17;;;;;;;18.27;8.55;;;;;;;11.65;93.01;102638.72;5002695;28;20092;-66
2022/09/21 08:28:47;;;;;;;19.70;8.95;;;;;;;11.76;91.26;102644.75;5003887;28;20079;-66
2022/09/21 08:31:13;;;;;;;18.55;8.48;;;;;;;11.84;90.54;102639.19;5004823;28;20026;-67
2022/09/21 08:33:38;;;;;;;19.83;11.45;;;;;;;11.97;92.31;102635.72;5010888;28;20038;-66
2022/09/21 08:36:04;;;;;;;14.68;7.85;;;;;;;12.04;89.36;102644.91;5006111;28;20049;-67
2022/09/21 08:38:34;;;;;;;18.98;8.32;;;;;;;12.12;87.43;102647.53;5019826;28;20040;-67
2022/09/21 08:41:02;;;;;;;29.17;20.80;;;;;;;12.17;86.01;102637.63;5015699;28;20025;-67
2022/09/21 08:43:35;;;;;;;19.40;9.40;;;;;;;12.30;86.74;102644.31;5026372;28;20026;-67
2022/09/21 08:46:09;;;;;;;18.42;7.65;;;;;;;12.48;86.35;102643.84;5005577;28;20088;-67
2022/09/21 08:48:41;;;;;;;20.73;8.30;;;;;;;12.63;84.88;102642.69;5000479;28;20079;-67
2022/09/21 08:51:13;;;;;;;15.30;7.22;;;;;;;12.84;84.32;102643.66;5027386;28;20083;-67
2022/09/21 08:53:45;;;;;;;16.70;7.47;;;;;;;13.37;81.55;102639.31;5015441;28;20041;-67
2022/09/21 08:56:15;;;;;;;12.77;6.10;;;;;;;15.45;74.29;102638.09;5028872;28;20041;-67
2022/09/21 08:58:41;;;;;;;17.45;9.25;;;;;;;17.46;68.96;102634.31;5027431;28;20029;-67
2022/09/21 09:01:18;;;;;;;21.83;11.70;;;;;;;19.58;63.06;102635.44;5028369;28;20047;-68
2022/09/21 09:03:57;;;;;;;16.35;7.28;;;;;;;21.54;55.66;102642.06;5028826;28;20519;-68
2022/09/21 09:07:03;;;;;;;12.85;5.03;;;;;;;23.44;56.42;102649.88;5028513;28;20553;-70
2022/09/21 09:09:35;;;;;;;11.57;5.80;;;;;;;24.46;42.49;102655.78;5011745;28;20045;-69
2022/09/21 09:12:35;;;;;;;15.10;5.03;;;;;;;25.34;40.07;102663.81;4992070;28;20052;-69
2022/09/21 09:15:19;;;;;;;14.90;5.97;;;;;;;26.26;45.07;102654.91;4940489;28;20035;-68
2022/09/21 09:17:53;;;;;;;11.80;4.25;;;;;;;26.91;40.13;102646.97;4992714;28;20059;-68
2022/09/21 09:20:39;;;;;;;11.48;3.20;;;;;;;27.42;36.94;102657.75;5022422;28;20167;-67
2022/09/21 09:23:25;;;;;;;10.13;2.42;;;;;;;27.30;40.34;102657.31;5015964;28;20509;-69
2022/09/21 09:25:57;;;;;;;10.63;3.00;;;;;;;27.12;36.06;102661.75;5028965;28;20064;-68
2022/09/21 09:28:46;;;;;;;10.85;3.63;;;;;;;28.16;39.13;102651.63;5016552;28;20104;-70
2022/09/21 09:31:18;;;;;;;10.13;3.08;;;;;;;28.53;34.18;102653.59;5021093;28;20453;-70
2022/09/21 09:34:02;;;;;;;9.13;2.83;;;;;;;28.51;32.26;102658.72;5019950;28;20045;-70
2022/09/21 09:36:32;;;;;;;9.93;3.17;;;;;;;26.66;32.98;102650.06;5009709;28;20037;-70
2022/09/21 09:39:01;;;;;;;9.25;2.85;;;;;;;23.87;39.04;102658.19;5012377;28;20045;-68
2022/09/21 09:41:49;;;;;;;10.98;3.45;;;;;;;22.31;46.36;102660.56;5009752;28;20037;-68
2022/09/21 09:44:51;;;;;;;8.95;2.95;;;;;;;23.18;45.30;102653.69;5007633;28;20033;-68
2022/09/21 09:47:49;;;;;;;8.88;2.60;;;;;;;25.89;38.69;102644.16;5018034;28;20044;-69
2022/09/21 09:50:30;;;;;;;9.27;2.45;;;;;;;25.98;38.05;102656.47;5016689;28;20076;-69
2022/09/21 09:53:03;;;;;;;8.32;2.50;;;;;;;23.80;39.01;102652.84;5012547;28;20075;-69
2022/09/21 09:55:37;;;;;;;10.43;2.40;;;;;;;21.82;43.71;102661.44;5015626;28;20029;-68
2022/09/21 09:58:02;;;;;;;9.45;2.60;;;;;;;20.46;47.37;102665.59;5011885;28;20519;-68
2022/09/21 10:00:28;;;;;;;8.02;2.83;;;;;;;20.19;50.61;102665.38;5016546;28;20034;-68
2022/09/21 10:02:55;;;;;;;8.85;3.00;;;;;;;19.85;48.60;102653.28;5018251;28;20033;-68
2022/09/21 10:05:22;;;;;;;8.80;2.78;;;;;;;18.99;50.18;102657.84;5030208;28;20029;-67
2022/09/21 10:07:49;;;;;;;8.13;2.65;;;;;;;18.15;54.95;102659.91;5016890;28;20056;-67
2022/09/21 10:10:20;;;;;;;8.57;2.70;;;;;;;17.55;58.37;102660.69;5011704;28;20033;-68
2022/09/21 10:12:46;;;;;;;9.82;3.00;;;;;;;16.95;58.59;102665.25;5007657;28;20123;-68
2022/09/21 10:15:12;;;;;;;8.93;2.60;;;;;;;16.76;59.53;102658.78;5021751;28;20030;-68
2022/09/21 10:17:38;;;;;;;8.95;2.50;;;;;;;16.51;58.54;102664.31;5030050;28;20387;-68
2022/09/21 10:20:06;;;;;;;10.25;3.30;;;;;;;16.26;63.04;102658.75;5024502;28;20427;-68
2022/09/21 10:22:32;;;;;;;9.02;2.42;;;;;;;16.10;63.02;102660.16;5029060;28;20121;-68
2022/09/21 10:25:00;;;;;;;11.63;2.33;;;;;;;15.97;63.87;102657.47;5026763;28;20188;-68
2022/09/21 10:27:34;;;;;;;8.63;2.25;;;;;;;15.90;62.87;102651.97;5028329;28;20037;-68
2022/09/21 10:29:59;;;;;;;9.07;2.13;;;;;;;15.85;62.86;102651.78;5027821;28;20032;-68
2022/09/21 10:32:26;;;;;;;7.20;2.45;;;;;;;15.78;64.04;102648.19;5027579;28;20030;-68
2022/09/21 10:35:04;;;;;;;9.15;2.60;;;;;;;15.83;64.63;102643.69;5029029;28;20030;-68
2022/09/21 10:37:36;;;;;;;9.07;2.20;;;;;;;15.78;65.64;102649.03;5028597;28;20065;-68
2022/09/21 10:40:02;;;;;;;7.90;2.10;;;;;;;15.94;64.54;102641.28;5029585;28;20356;-67
2022/09/21 10:42:40;;;;;;;7.32;2.10;;;;;;;16.49;64.83;102645.13;5026395;28;20053;-67
2022/09/21 10:45:14;;;;;;;8.52;1.92;;;;;;;19.94;53.77;102626.72;5020360;28;20052;-67
2022/09/21 10:47:43;;;;;;;9.15;2.47;;;;;;;22.49;43.42;102629.34;5015927;28;20048;-68
2022/09/21 10:50:23;;;;;;;9.07;2.22;;;;;;;24.65;41.33;102629.94;5029159;28;20124;-67
2022/09/21 10:52:50;;;;;;;6.57;1.70;;;;;;;23.71;38.18;102627.28;5010495;28;20472;-68
2022/09/21 10:55:18;;;;;;;7.87;2.23;;;;;;;22.09;40.79;102627.84;5029471;28;20025;-67
2022/09/21 10:57:45;;;;;;;6.68;1.15;;;;;;;20.72;41.46;102632.53;5026956;28;20040;-67
2022/09/21 11:00:34;;;;;;;8.80;1.30;;;;;;;20.52;44.98;102627.44;5026985;28;20480;-67
2022/09/21 11:03:22;;;;;;;5.70;1.15;;;;;;;23.08;38.71;102623.63;5015804;28;20440;-68
2022/09/21 11:05:49;;;;;;;6.18;1.60;;;;;;;25.54;33.98;102629.09;5018748;28;20445;-68
2022/09/21 11:08:20;;;;;;;6.50;1.30;;;;;;;27.05;33.41;102624.56;5025185;28;20575;-68
2022/09/21 11:11:02;;;;;;;6.20;1.50;;;;;;;28.63;32.88;102627.97;5025820;28;20029;-67
2022/09/21 11:13:32;;;;;;;5.85;1.48;;;;;;;29.48;27.99;102628.56;5025387;28;20049;-68
2022/09/21 11:16:26;;;;;;;6.47;1.60;;;;;;;28.10;31.29;102621.78;5028463;28;20398;-67
2022/09/21 11:19:19;;;;;;;5.32;1.35;;;;;;;28.47;33.00;102628.56;5023756;28;20041;-67
2022/09/21 11:21:47;;;;;;;4.93;1.10;;;;;;;28.31;28.06;102617.47;5023663;28;20059;-67
2022/09/21 11:24:19;;;;;;;7.18;1.20;;;;;;;26.39;30.49;102625.19;5023701;28;20121;-67
2022/09/21 11:26:55;;;;;;;5.72;1.23;;;;;;;23.91;33.37;102620.88;5019232;28;20022;-67
2022/09/21 11:29:34;;;;;;;6.28;1.27;;;;;;;22.25;38.19;102621.34;5015490;28;20061;-67